DUQ weather

Duncan Airport
Duncan, British Columbia, Canada

Public forecast

Using degrees Celsius for public forecast. Weather courtesy of forecast.io.

METAR (pilot weather report)

Closest report is Victoria International Airport, 13.0 nm (24.0 km) ESE. Retrieved 2019/09/23 05:00 UTC (54 minutes ago):

CYYJ 230500Z 26003KT 15SM FEW040 BKN060 BKN250 13/13 A2994 RMK SC1SC4CI2 SLP139

TAF (pilot weather forecast)

Forecast is more than 12 hours old.

Closest forecast is Victoria International Airport, 13.0 nm (24.0 km) ESE. Retrieved 2019/09/22 00:39 UTC (1 day ago):

TAF CYYJ 222338Z 2300/2324 12008KT P6SM SCT020 SCT050 TEMPO 2300/2312 5SM BR BKN020 BECMG 2302/2304 26005KT FM231200 22008KT P6SM SCT020 BKN150 TEMPO 2312/2318 BKN020 FM231800 16010KT P6SM -RA BKN060 OVC100 RMK NXT FCST BY 230600Z